Arnegard, North Dakota
Current Conditions -  °F | °C
As of 2:52 AM on Wednesday 22 Oct 2014 (Local Time) from KISN Reporting Station
Light Rain Light Rain  
Wind Chill: 57°   Ceiling: 11000
Heat Index: 57°   Visibility: 10mi
Dew Point: 47°   Wind: 26mph
Humidity: 69%   Direction: 280°W
Pressure: 29.65"   Gusts: 31mph
Location:  47.81°N, 103.44°W
Report Text: KISN 220752Z AUTO 28023G27KT 10SM -RA BKN110 14/08 A2965 RMK AO2 PK WND 28027/0752 RAB05 SLP034 P0000 T01390083
Loading
Personal Weather Stations






























Interactive Weather Map New forecast layout! Learn more

10-Day Weather Forecast

Advertisements
Track Severe Weather on mobile